sensor_id;sensor_type;location;lat;lon;timestamp;P1;durP1;ratioP1;P2;durP2;ratioP2
2338;SDS011;1180;51.438;6.978;2023-07-20T00:01:44;5.10;;;3.03;;
2338;SDS011;1180;51.438;6.978;2023-07-20T00:04:10;4.40;;;3.33;;
2338;SDS011;1180;51.438;6.978;2023-07-20T00:06:37;3.23;;;2.87;;
2338;SDS011;1180;51.438;6.978;2023-07-20T00:09:08;5.50;;;3.77;;
2338;SDS011;1180;51.438;6.978;2023-07-20T00:11:37;3.13;;;2.93;;
2338;SDS011;1180;51.438;6.978;2023-07-20T00:14:06;3.70;;;3.40;;
2338;SDS011;1180;51.438;6.978;2023-07-20T00:16:32;4.10;;;3.60;;
2338;SDS011;1180;51.438;6.978;2023-07-20T00:18:58;3.77;;;3.03;;
2338;SDS011;1180;51.438;6.978;2023-07-20T00:21:25;5.80;;;4.30;;
2338;SDS011;1180;51.438;6.978;2023-07-20T00:23:50;5.30;;;3.97;;
2338;SDS011;1180;51.438;6.978;2023-07-20T00:26:16;4.90;;;3.73;;
2338;SDS011;1180;51.438;6.978;2023-07-20T00:28:42;4.00;;;3.60;;
2338;SDS011;1180;51.438;6.978;2023-07-20T00:31:08;4.10;;;3.70;;
2338;SDS011;1180;51.438;6.978;2023-07-20T00:33:34;4.60;;;3.93;;
2338;SDS011;1180;51.438;6.978;2023-07-20T00:36:00;4.70;;;3.93;;
2338;SDS011;1180;51.438;6.978;2023-07-20T00:38:25;4.00;;;3.57;;
2338;SDS011;1180;51.438;6.978;2023-07-20T00:40:51;4.40;;;3.90;;
2338;SDS011;1180;51.438;6.978;2023-07-20T00:43:17;4.77;;;4.13;;
2338;SDS011;1180;51.438;6.978;2023-07-20T00:45:44;3.40;;;3.10;;
2338;SDS011;1180;51.438;6.978;2023-07-20T00:48:10;7.73;;;3.90;;
2338;SDS011;1180;51.438;6.978;2023-07-20T00:50:36;4.27;;;3.60;;
2338;SDS011;1180;51.438;6.978;2023-07-20T00:53:02;6.80;;;3.80;;
2338;SDS011;1180;51.438;6.978;2023-07-20T00:55:31;7.20;;;4.67;;
2338;SDS011;1180;51.438;6.978;2023-07-20T00:57:58;4.00;;;3.43;;
2338;SDS011;1180;51.438;6.978;2023-07-20T01:00:24;4.50;;;3.87;;
2338;SDS011;1180;51.438;6.978;2023-07-20T01:02:50;4.87;;;4.13;;
2338;SDS011;1180;51.438;6.978;2023-07-20T01:05:16;6.03;;;3.63;;
2338;SDS011;1180;51.438;6.978;2023-07-20T01:07:58;5.60;;;4.00;;
2338;SDS011;1180;51.438;6.978;2023-07-20T01:10:31;5.27;;;3.97;;
2338;SDS011;1180;51.438;6.978;2023-07-20T01:13:22;8.10;;;5.30;;
2338;SDS011;1180;51.438;6.978;2023-07-20T01:15:53;5.87;;;3.90;;
2338;SDS011;1180;51.438;6.978;2023-07-20T01:18:22;3.80;;;3.47;;
2338;SDS011;1180;51.438;6.978;2023-07-20T01:20:48;5.43;;;4.20;;
2338;SDS011;1180;51.438;6.978;2023-07-20T01:26:02;4.33;;;3.50;;
2338;SDS011;1180;51.438;6.978;2023-07-20T01:31:32;4.10;;;3.60;;
2338;SDS011;1180;51.438;6.978;2023-07-20T01:34:00;6.30;;;3.67;;
2338;SDS011;1180;51.438;6.978;2023-07-20T01:36:32;4.90;;;4.40;;
2338;SDS011;1180;51.438;6.978;2023-07-20T01:39:00;5.33;;;4.57;;
2338;SDS011;1180;51.438;6.978;2023-07-20T01:41:27;4.40;;;3.87;;
2338;SDS011;1180;51.438;6.978;2023-07-20T01:43:53;4.73;;;3.93;;
2338;SDS011;1180;51.438;6.978;2023-07-20T01:46:24;7.70;;;4.23;;
2338;SDS011;1180;51.438;6.978;2023-07-20T01:48:50;5.70;;;4.50;;
2338;SDS011;1180;51.438;6.978;2023-07-20T01:51:16;5.20;;;4.47;;
2338;SDS011;1180;51.438;6.978;2023-07-20T01:53:43;5.90;;;4.43;;
2338;SDS011;1180;51.438;6.978;2023-07-20T01:56:09;5.10;;;3.93;;
2338;SDS011;1180;51.438;6.978;2023-07-20T01:58:37;4.10;;;3.70;;
2338;SDS011;1180;51.438;6.978;2023-07-20T02:01:03;6.37;;;4.40;;
2338;SDS011;1180;51.438;6.978;2023-07-20T02:03:29;6.37;;;4.50;;
2338;SDS011;1180;51.438;6.978;2023-07-20T02:05:55;6.47;;;5.57;;
2338;SDS011;1180;51.438;6.978;2023-07-20T02:08:22;5.30;;;4.80;;
2338;SDS011;1180;51.438;6.978;2023-07-20T02:10:48;8.03;;;4.60;;
2338;SDS011;1180;51.438;6.978;2023-07-20T02:13:14;6.03;;;4.90;;
2338;SDS011;1180;51.438;6.978;2023-07-20T02:15:41;7.63;;;5.03;;
2338;SDS011;1180;51.438;6.978;2023-07-20T02:18:12;7.60;;;4.60;;
2338;SDS011;1180;51.438;6.978;2023-07-20T02:20:38;8.80;;;4.70;;
2338;SDS011;1180;51.438;6.978;2023-07-20T02:23:10;6.67;;;6.07;;
2338;SDS011;1180;51.438;6.978;2023-07-20T02:25:36;7.63;;;5.20;;
2338;SDS011;1180;51.438;6.978;2023-07-20T02:28:03;6.43;;;5.03;;
2338;SDS011;1180;51.438;6.978;2023-07-20T02:30:29;5.40;;;4.90;;
2338;SDS011;1180;51.438;6.978;2023-07-20T02:32:55;7.00;;;5.30;;
2338;SDS011;1180;51.438;6.978;2023-07-20T02:35:23;6.07;;;5.47;;
2338;SDS011;1180;51.438;6.978;2023-07-20T02:37:49;8.57;;;6.80;;
2338;SDS011;1180;51.438;6.978;2023-07-20T02:40:15;6.97;;;5.30;;
2338;SDS011;1180;51.438;6.978;2023-07-20T02:42:41;7.60;;;5.83;;
2338;SDS011;1180;51.438;6.978;2023-07-20T02:45:07;6.43;;;5.83;;
2338;SDS011;1180;51.438;6.978;2023-07-20T02:47:33;7.27;;;5.70;;
2338;SDS011;1180;51.438;6.978;2023-07-20T02:49:59;8.30;;;6.67;;
2338;SDS011;1180;51.438;6.978;2023-07-20T02:52:25;11.00;;;6.33;;
2338;SDS011;1180;51.438;6.978;2023-07-20T02:54:50;7.07;;;6.43;;
2338;SDS011;1180;51.438;6.978;2023-07-20T02:57:17;8.37;;;5.93;;
2338;SDS011;1180;51.438;6.978;2023-07-20T02:59:43;6.20;;;5.17;;
2338;SDS011;1180;51.438;6.978;2023-07-20T03:02:08;6.63;;;5.90;;
2338;SDS011;1180;51.438;6.978;2023-07-20T03:04:35;8.67;;;6.17;;
2338;SDS011;1180;51.438;6.978;2023-07-20T03:07:02;7.63;;;6.43;;
2338;SDS011;1180;51.438;6.978;2023-07-20T03:09:32;9.33;;;6.40;;
2338;SDS011;1180;51.438;6.978;2023-07-20T03:11:58;6.17;;;5.57;;
2338;SDS011;1180;51.438;6.978;2023-07-20T03:14:23;6.30;;;5.70;;
2338;SDS011;1180;51.438;6.978;2023-07-20T03:16:50;9.03;;;6.50;;
2338;SDS011;1180;51.438;6.978;2023-07-20T03:19:16;7.83;;;6.43;;
2338;SDS011;1180;51.438;6.978;2023-07-20T03:21:41;9.13;;;7.13;;
2338;SDS011;1180;51.438;6.978;2023-07-20T03:24:08;9.13;;;7.30;;
2338;SDS011;1180;51.438;6.978;2023-07-20T03:26:35;6.90;;;6.20;;
2338;SDS011;1180;51.438;6.978;2023-07-20T03:29:02;11.47;;;8.17;;
2338;SDS011;1180;51.438;6.978;2023-07-20T03:31:30;9.40;;;8.43;;
2338;SDS011;1180;51.438;6.978;2023-07-20T03:33:55;9.53;;;8.20;;
2338;SDS011;1180;51.438;6.978;2023-07-20T03:36:21;12.10;;;8.73;;
2338;SDS011;1180;51.438;6.978;2023-07-20T03:38:47;8.50;;;7.70;;
2338;SDS011;1180;51.438;6.978;2023-07-20T03:41:13;10.30;;;8.87;;
2338;SDS011;1180;51.438;6.978;2023-07-20T03:43:41;10.40;;;9.20;;
2338;SDS011;1180;51.438;6.978;2023-07-20T03:46:07;10.00;;;7.80;;
2338;SDS011;1180;51.438;6.978;2023-07-20T03:48:33;10.13;;;9.13;;
2338;SDS011;1180;51.438;6.978;2023-07-20T03:50:59;10.43;;;8.50;;
2338;SDS011;1180;51.438;6.978;2023-07-20T03:53:25;11.37;;;8.60;;
2338;SDS011;1180;51.438;6.978;2023-07-20T03:55:51;9.50;;;8.50;;
2338;SDS011;1180;51.438;6.978;2023-07-20T03:58:18;12.30;;;9.77;;
2338;SDS011;1180;51.438;6.978;2023-07-20T04:00:48;10.27;;;8.80;;
2338;SDS011;1180;51.438;6.978;2023-07-20T04:03:18;10.60;;;8.80;;
2338;SDS011;1180;51.438;6.978;2023-07-20T04:05:45;12.10;;;9.83;;
2338;SDS011;1180;51.438;6.978;2023-07-20T04:08:11;12.70;;;9.70;;
2338;SDS011;1180;51.438;6.978;2023-07-20T04:10:37;18.13;;;12.80;;
2338;SDS011;1180;51.438;6.978;2023-07-20T04:13:04;12.27;;;11.17;;
2338;SDS011;1180;51.438;6.978;2023-07-20T04:15:30;12.80;;;11.60;;
2338;SDS011;1180;51.438;6.978;2023-07-20T04:17:56;15.90;;;12.53;;
2338;SDS011;1180;51.438;6.978;2023-07-20T04:20:25;13.90;;;12.43;;
2338;SDS011;1180;51.438;6.978;2023-07-20T04:22:51;14.90;;;13.30;;
2338;SDS011;1180;51.438;6.978;2023-07-20T04:25:17;16.83;;;15.00;;
2338;SDS011;1180;51.438;6.978;2023-07-20T04:27:43;18.60;;;16.03;;
2338;SDS011;1180;51.438;6.978;2023-07-20T04:30:11;15.27;;;12.30;;
2338;SDS011;1180;51.438;6.978;2023-07-20T04:32:38;14.17;;;12.87;;
2338;SDS011;1180;51.438;6.978;2023-07-20T04:35:16;14.47;;;13.07;;
2338;SDS011;1180;51.438;6.978;2023-07-20T04:37:44;14.10;;;11.93;;
2338;SDS011;1180;51.438;6.978;2023-07-20T04:40:12;13.10;;;10.33;;
2338;SDS011;1180;51.438;6.978;2023-07-20T04:42:40;13.30;;;12.07;;
2338;SDS011;1180;51.438;6.978;2023-07-20T04:45:07;14.90;;;12.30;;
2338;SDS011;1180;51.438;6.978;2023-07-20T04:47:33;14.60;;;12.33;;
2338;SDS011;1180;51.438;6.978;2023-07-20T04:49:59;12.07;;;10.83;;
2338;SDS011;1180;51.438;6.978;2023-07-20T04:52:25;11.93;;;10.83;;
2338;SDS011;1180;51.438;6.978;2023-07-20T04:54:50;14.03;;;10.97;;
2338;SDS011;1180;51.438;6.978;2023-07-20T04:57:16;9.73;;;8.93;;
2338;SDS011;1180;51.438;6.978;2023-07-20T04:59:42;13.30;;;12.10;;
2338;SDS011;1180;51.438;6.978;2023-07-20T05:02:08;12.20;;;11.10;;
2338;SDS011;1180;51.438;6.978;2023-07-20T05:04:34;11.70;;;10.50;;
2338;SDS011;1180;51.438;6.978;2023-07-20T05:07:00;15.93;;;12.00;;
2338;SDS011;1180;51.438;6.978;2023-07-20T05:09:26;12.83;;;11.50;;
2338;SDS011;1180;51.438;6.978;2023-07-20T05:11:52;17.23;;;13.37;;
2338;SDS011;1180;51.438;6.978;2023-07-20T05:14:18;15.43;;;13.00;;
2338;SDS011;1180;51.438;6.978;2023-07-20T05:16:44;14.93;;;13.33;;
2338;SDS011;1180;51.438;6.978;2023-07-20T05:19:10;14.53;;;13.03;;
2338;SDS011;1180;51.438;6.978;2023-07-20T05:21:35;11.03;;;10.00;;
2338;SDS011;1180;51.438;6.978;2023-07-20T05:24:01;9.33;;;8.50;;
2338;SDS011;1180;51.438;6.978;2023-07-20T05:26:27;12.10;;;9.13;;
2338;SDS011;1180;51.438;6.978;2023-07-20T05:28:53;10.50;;;9.43;;
2338;SDS011;1180;51.438;6.978;2023-07-20T05:31:19;11.50;;;10.40;;
2338;SDS011;1180;51.438;6.978;2023-07-20T05:33:45;10.87;;;9.47;;
2338;SDS011;1180;51.438;6.978;2023-07-20T05:36:11;10.67;;;9.57;;
2338;SDS011;1180;51.438;6.978;2023-07-20T05:38:36;11.80;;;10.47;;
2338;SDS011;1180;51.438;6.978;2023-07-20T05:41:02;10.00;;;9.10;;
2338;SDS011;1180;51.438;6.978;2023-07-20T05:43:28;9.40;;;8.60;;
2338;SDS011;1180;51.438;6.978;2023-07-20T05:45:55;10.17;;;8.83;;
2338;SDS011;1180;51.438;6.978;2023-07-20T05:48:21;8.20;;;7.43;;
2338;SDS011;1180;51.438;6.978;2023-07-20T05:50:46;7.67;;;6.87;;
2338;SDS011;1180;51.438;6.978;2023-07-20T05:53:12;7.90;;;7.20;;
2338;SDS011;1180;51.438;6.978;2023-07-20T05:55:38;8.20;;;7.37;;
2338;SDS011;1180;51.438;6.978;2023-07-20T05:58:05;6.50;;;5.80;;
2338;SDS011;1180;51.438;6.978;2023-07-20T06:00:31;7.70;;;6.73;;
2338;SDS011;1180;51.438;6.978;2023-07-20T06:02:57;8.70;;;7.90;;
2338;SDS011;1180;51.438;6.978;2023-07-20T06:05:22;7.90;;;6.80;;
2338;SDS011;1180;51.438;6.978;2023-07-20T06:07:49;8.70;;;7.90;;
2338;SDS011;1180;51.438;6.978;2023-07-20T06:10:15;7.73;;;7.03;;
2338;SDS011;1180;51.438;6.978;2023-07-20T06:12:41;6.83;;;6.23;;
2338;SDS011;1180;51.438;6.978;2023-07-20T06:15:23;6.87;;;6.27;;
2338;SDS011;1180;51.438;6.978;2023-07-20T06:17:53;6.70;;;6.20;;
2338;SDS011;1180;51.438;6.978;2023-07-20T06:20:20;7.13;;;6.53;;
2338;SDS011;1180;51.438;6.978;2023-07-20T06:22:46;6.43;;;5.73;;
2338;SDS011;1180;51.438;6.978;2023-07-20T06:25:12;7.70;;;5.73;;
2338;SDS011;1180;51.438;6.978;2023-07-20T06:27:38;5.13;;;4.73;;
2338;SDS011;1180;51.438;6.978;2023-07-20T06:30:04;5.17;;;4.67;;
2338;SDS011;1180;51.438;6.978;2023-07-20T06:32:31;4.87;;;4.47;;
2338;SDS011;1180;51.438;6.978;2023-07-20T06:34:57;5.50;;;5.00;;
2338;SDS011;1180;51.438;6.978;2023-07-20T06:37:23;5.20;;;4.70;;
2338;SDS011;1180;51.438;6.978;2023-07-20T06:39:49;5.00;;;4.60;;
2338;SDS011;1180;51.438;6.978;2023-07-20T06:42:15;3.13;;;2.83;;
2338;SDS011;1180;51.438;6.978;2023-07-20T06:44:41;5.03;;;4.53;;
2338;SDS011;1180;51.438;6.978;2023-07-20T06:47:07;5.43;;;4.27;;
2338;SDS011;1180;51.438;6.978;2023-07-20T06:49:32;5.03;;;4.43;;
2338;SDS011;1180;51.438;6.978;2023-07-20T06:51:58;5.40;;;4.90;;
2338;SDS011;1180;51.438;6.978;2023-07-20T06:54:24;4.93;;;4.07;;
2338;SDS011;1180;51.438;6.978;2023-07-20T06:56:49;5.70;;;5.20;;
2338;SDS011;1180;51.438;6.978;2023-07-20T06:59:15;5.50;;;5.00;;
2338;SDS011;1180;51.438;6.978;2023-07-20T07:01:42;8.03;;;7.30;;
2338;SDS011;1180;51.438;6.978;2023-07-20T07:04:08;7.80;;;7.20;;
2338;SDS011;1180;51.438;6.978;2023-07-20T07:06:33;6.50;;;5.90;;
2338;SDS011;1180;51.438;6.978;2023-07-20T07:08:59;5.60;;;5.10;;
2338;SDS011;1180;51.438;6.978;2023-07-20T07:11:25;4.30;;;4.00;;
2338;SDS011;1180;51.438;6.978;2023-07-20T07:13:51;6.80;;;6.30;;
2338;SDS011;1180;51.438;6.978;2023-07-20T07:16:20;6.20;;;5.60;;
2338;SDS011;1180;51.438;6.978;2023-07-20T07:18:47;6.20;;;5.67;;
2338;SDS011;1180;51.438;6.978;2023-07-20T07:21:15;5.90;;;5.30;;
2338;SDS011;1180;51.438;6.978;2023-07-20T07:23:41;6.17;;;5.70;;
2338;SDS011;1180;51.438;6.978;2023-07-20T07:26:06;7.90;;;7.30;;
2338;SDS011;1180;51.438;6.978;2023-07-20T07:28:32;7.17;;;6.67;;
2338;SDS011;1180;51.438;6.978;2023-07-20T07:30:58;6.53;;;6.03;;
2338;SDS011;1180;51.438;6.978;2023-07-20T07:33:24;5.10;;;4.70;;
2338;SDS011;1180;51.438;6.978;2023-07-20T07:35:52;5.30;;;4.90;;
2338;SDS011;1180;51.438;6.978;2023-07-20T07:38:19;4.93;;;4.63;;
2338;SDS011;1180;51.438;6.978;2023-07-20T07:40:45;4.97;;;4.57;;
2338;SDS011;1180;51.438;6.978;2023-07-20T07:43:11;5.87;;;5.37;;
2338;SDS011;1180;51.438;6.978;2023-07-20T07:45:39;5.57;;;4.87;;
2338;SDS011;1180;51.438;6.978;2023-07-20T07:48:06;3.73;;;3.43;;
2338;SDS011;1180;51.438;6.978;2023-07-20T07:50:32;2.40;;;2.30;;
2338;SDS011;1180;51.438;6.978;2023-07-20T07:52:59;2.53;;;2.33;;
2338;SDS011;1180;51.438;6.978;2023-07-20T07:55:25;2.03;;;1.83;;
2338;SDS011;1180;51.438;6.978;2023-07-20T07:57:54;1.70;;;1.57;;
2338;SDS011;1180;51.438;6.978;2023-07-20T08:00:20;2.23;;;2.13;;
2338;SDS011;1180;51.438;6.978;2023-07-20T08:02:46;2.33;;;2.20;;
2338;SDS011;1180;51.438;6.978;2023-07-20T08:05:13;2.60;;;2.40;;
2338;SDS011;1180;51.438;6.978;2023-07-20T08:07:39;3.70;;;2.80;;
2338;SDS011;1180;51.438;6.978;2023-07-20T08:10:05;1.73;;;1.60;;
2338;SDS011;1180;51.438;6.978;2023-07-20T08:12:31;2.80;;;1.53;;
2338;SDS011;1180;51.438;6.978;2023-07-20T08:14:57;2.40;;;1.60;;
2338;SDS011;1180;51.438;6.978;2023-07-20T08:17:23;1.60;;;1.50;;
2338;SDS011;1180;51.438;6.978;2023-07-20T08:19:49;2.97;;;1.67;;
2338;SDS011;1180;51.438;6.978;2023-07-20T08:22:15;1.47;;;1.37;;
2338;SDS011;1180;51.438;6.978;2023-07-20T08:24:42;2.60;;;1.30;;
2338;SDS011;1180;51.438;6.978;2023-07-20T08:27:09;2.00;;;1.17;;
2338;SDS011;1180;51.438;6.978;2023-07-20T08:29:35;1.50;;;1.40;;
2338;SDS011;1180;51.438;6.978;2023-07-20T08:32:02;1.60;;;1.50;;
2338;SDS011;1180;51.438;6.978;2023-07-20T08:34:29;2.20;;;1.60;;
2338;SDS011;1180;51.438;6.978;2023-07-20T08:36:55;3.00;;;1.73;;
2338;SDS011;1180;51.438;6.978;2023-07-20T08:39:22;2.50;;;1.37;;
2338;SDS011;1180;51.438;6.978;2023-07-20T08:41:48;2.20;;;1.57;;
2338;SDS011;1180;51.438;6.978;2023-07-20T08:44:14;1.20;;;1.07;;
2338;SDS011;1180;51.438;6.978;2023-07-20T08:46:41;1.83;;;1.73;;
2338;SDS011;1180;51.438;6.978;2023-07-20T08:49:08;1.83;;;1.43;;
2338;SDS011;1180;51.438;6.978;2023-07-20T08:51:36;1.80;;;1.70;;
2338;SDS011;1180;51.438;6.978;2023-07-20T08:54:03;2.83;;;1.70;;
2338;SDS011;1180;51.438;6.978;2023-07-20T08:56:28;3.87;;;2.00;;
2338;SDS011;1180;51.438;6.978;2023-07-20T08:58:58;1.30;;;1.20;;
2338;SDS011;1180;51.438;6.978;2023-07-20T09:01:26;1.20;;;0.73;;
2338;SDS011;1180;51.438;6.978;2023-07-20T09:03:54;2.00;;;1.33;;
2338;SDS011;1180;51.438;6.978;2023-07-20T09:06:21;1.13;;;0.93;;
2338;SDS011;1180;51.438;6.978;2023-07-20T09:08:46;1.13;;;0.87;;
2338;SDS011;1180;51.438;6.978;2023-07-20T09:11:12;2.07;;;1.00;;
2338;SDS011;1180;51.438;6.978;2023-07-20T09:13:41;1.73;;;0.97;;
2338;SDS011;1180;51.438;6.978;2023-07-20T09:16:07;1.30;;;0.90;;
2338;SDS011;1180;51.438;6.978;2023-07-20T09:18:33;1.13;;;1.00;;
2338;SDS011;1180;51.438;6.978;2023-07-20T09:21:02;2.00;;;1.00;;
2338;SDS011;1180;51.438;6.978;2023-07-20T09:23:34;2.10;;;1.10;;
2338;SDS011;1180;51.438;6.978;2023-07-20T09:26:09;1.20;;;1.10;;
2338;SDS011;1180;51.438;6.978;2023-07-20T09:28:57;1.27;;;0.80;;
2338;SDS011;1180;51.438;6.978;2023-07-20T09:31:22;1.33;;;0.77;;
2338;SDS011;1180;51.438;6.978;2023-07-20T09:33:49;2.50;;;0.90;;
2338;SDS011;1180;51.438;6.978;2023-07-20T09:36:17;6.00;;;1.30;;
2338;SDS011;1180;51.438;6.978;2023-07-20T09:38:43;1.77;;;0.70;;
2338;SDS011;1180;51.438;6.978;2023-07-20T09:41:13;1.07;;;0.80;;
2338;SDS011;1180;51.438;6.978;2023-07-20T09:43:40;0.90;;;0.70;;
2338;SDS011;1180;51.438;6.978;2023-07-20T09:46:07;1.00;;;0.70;;
2338;SDS011;1180;51.438;6.978;2023-07-20T09:48:33;1.10;;;0.83;;
2338;SDS011;1180;51.438;6.978;2023-07-20T09:50:59;1.10;;;1.00;;
2338;SDS011;1180;51.438;6.978;2023-07-20T09:53:26;1.20;;;0.80;;
2338;SDS011;1180;51.438;6.978;2023-07-20T09:55:53;1.07;;;0.80;;
2338;SDS011;1180;51.438;6.978;2023-07-20T09:58:21;1.00;;;0.80;;
2338;SDS011;1180;51.438;6.978;2023-07-20T10:00:47;1.70;;;1.07;;
2338;SDS011;1180;51.438;6.978;2023-07-20T10:03:25;1.97;;;1.17;;
2338;SDS011;1180;51.438;6.978;2023-07-20T10:05:56;2.10;;;1.00;;
2338;SDS011;1180;51.438;6.978;2023-07-20T10:08:25;1.87;;;1.20;;
2338;SDS011;1180;51.438;6.978;2023-07-20T10:10:54;2.20;;;1.20;;
2338;SDS011;1180;51.438;6.978;2023-07-20T10:13:21;1.00;;;0.90;;
2338;SDS011;1180;51.438;6.978;2023-07-20T10:16:11;1.30;;;1.20;;
2338;SDS011;1180;51.438;6.978;2023-07-20T10:21:24;1.30;;;1.17;;
2338;SDS011;1180;51.438;6.978;2023-07-20T10:23:51;1.20;;;1.00;;
2338;SDS011;1180;51.438;6.978;2023-07-20T10:26:17;1.50;;;1.33;;
2338;SDS011;1180;51.438;6.978;2023-07-20T10:28:43;2.50;;;1.27;;
2338;SDS011;1180;51.438;6.978;2023-07-20T10:31:09;1.17;;;1.07;;
2338;SDS011;1180;51.438;6.978;2023-07-20T10:33:38;2.37;;;1.47;;
2338;SDS011;1180;51.438;6.978;2023-07-20T10:36:05;2.17;;;1.97;;
2338;SDS011;1180;51.438;6.978;2023-07-20T10:38:41;1.63;;;1.00;;
2338;SDS011;1180;51.438;6.978;2023-07-20T10:41:28;1.73;;;1.20;;
2338;SDS011;1180;51.438;6.978;2023-07-20T10:44:01;1.80;;;1.40;;
2338;SDS011;1180;51.438;6.978;2023-07-20T10:49:05;2.30;;;2.10;;
2338;SDS011;1180;51.438;6.978;2023-07-20T10:51:41;1.90;;;1.80;;
2338;SDS011;1180;51.438;6.978;2023-07-20T10:54:10;6.37;;;2.50;;
2338;SDS011;1180;51.438;6.978;2023-07-20T10:56:55;3.20;;;2.90;;
2338;SDS011;1180;51.438;6.978;2023-07-20T11:01:59;3.40;;;3.20;;
2338;SDS011;1180;51.438;6.978;2023-07-20T11:04:37;3.00;;;2.50;;
2338;SDS011;1180;51.438;6.978;2023-07-20T11:07:07;2.00;;;1.77;;
2338;SDS011;1180;51.438;6.978;2023-07-20T11:09:33;2.00;;;1.80;;
2338;SDS011;1180;51.438;6.978;2023-07-20T11:12:13;2.30;;;2.13;;
2338;SDS011;1180;51.438;6.978;2023-07-20T11:14:43;3.03;;;1.90;;
2338;SDS011;1180;51.438;6.978;2023-07-20T11:17:20;1.70;;;1.40;;
2338;SDS011;1180;51.438;6.978;2023-07-20T11:19:47;2.17;;;1.77;;
2338;SDS011;1180;51.438;6.978;2023-07-20T11:22:19;1.37;;;1.23;;
2338;SDS011;1180;51.438;6.978;2023-07-20T11:24:45;2.13;;;1.90;;
2338;SDS011;1180;51.438;6.978;2023-07-20T11:27:11;1.50;;;1.40;;
2338;SDS011;1180;51.438;6.978;2023-07-20T11:29:37;1.60;;;1.50;;
2338;SDS011;1180;51.438;6.978;2023-07-20T11:32:02;3.37;;;1.63;;
2338;SDS011;1180;51.438;6.978;2023-07-20T11:34:30;2.27;;;2.07;;
2338;SDS011;1180;51.438;6.978;2023-07-20T11:36:56;2.40;;;2.20;;
2338;SDS011;1180;51.438;6.978;2023-07-20T11:39:22;2.90;;;2.13;;
2338;SDS011;1180;51.438;6.978;2023-07-20T11:41:52;2.30;;;2.20;;
2338;SDS011;1180;51.438;6.978;2023-07-20T11:44:20;2.33;;;2.20;;
2338;SDS011;1180;51.438;6.978;2023-07-20T11:47:00;2.33;;;1.93;;
2338;SDS011;1180;51.438;6.978;2023-07-20T11:49:28;2.33;;;2.13;;
2338;SDS011;1180;51.438;6.978;2023-07-20T11:51:54;2.40;;;1.70;;
2338;SDS011;1180;51.438;6.978;2023-07-20T11:54:21;2.20;;;2.00;;
2338;SDS011;1180;51.438;6.978;2023-07-20T11:56:53;1.70;;;1.60;;
2338;SDS011;1180;51.438;6.978;2023-07-20T11:59:21;2.90;;;2.47;;
2338;SDS011;1180;51.438;6.978;2023-07-20T12:01:47;1.50;;;1.40;;
2338;SDS011;1180;51.438;6.978;2023-07-20T12:04:13;3.20;;;1.80;;
2338;SDS011;1180;51.438;6.978;2023-07-20T12:06:39;2.10;;;1.50;;
2338;SDS011;1180;51.438;6.978;2023-07-20T12:09:04;3.20;;;2.20;;
2338;SDS011;1180;51.438;6.978;2023-07-20T12:11:31;2.60;;;1.93;;
2338;SDS011;1180;51.438;6.978;2023-07-20T12:13:58;1.80;;;1.70;;
2338;SDS011;1180;51.438;6.978;2023-07-20T12:16:26;2.80;;;1.87;;
2338;SDS011;1180;51.438;6.978;2023-07-20T12:19:01;1.80;;;1.70;;
2338;SDS011;1180;51.438;6.978;2023-07-20T12:21:34;2.53;;;2.00;;
2338;SDS011;1180;51.438;6.978;2023-07-20T12:24:03;1.90;;;1.80;;
2338;SDS011;1180;51.438;6.978;2023-07-20T12:26:30;2.50;;;1.93;;
2338;SDS011;1180;51.438;6.978;2023-07-20T12:28:57;5.70;;;1.87;;
2338;SDS011;1180;51.438;6.978;2023-07-20T12:31:23;1.73;;;1.63;;
2338;SDS011;1180;51.438;6.978;2023-07-20T12:33:50;1.83;;;1.67;;
2338;SDS011;1180;51.438;6.978;2023-07-20T12:36:17;1.67;;;1.57;;
2338;SDS011;1180;51.438;6.978;2023-07-20T12:38:43;2.10;;;1.90;;
2338;SDS011;1180;51.438;6.978;2023-07-20T12:41:10;1.80;;;1.20;;
2338;SDS011;1180;51.438;6.978;2023-07-20T12:43:43;1.57;;;1.47;;
2338;SDS011;1180;51.438;6.978;2023-07-20T12:46:10;1.37;;;1.27;;
2338;SDS011;1180;51.438;6.978;2023-07-20T12:48:37;1.67;;;1.57;;
2338;SDS011;1180;51.438;6.978;2023-07-20T12:51:05;2.80;;;1.50;;
2338;SDS011;1180;51.438;6.978;2023-07-20T12:53:31;1.67;;;1.57;;
2338;SDS011;1180;51.438;6.978;2023-07-20T12:55:57;1.73;;;1.20;;
2338;SDS011;1180;51.438;6.978;2023-07-20T12:58:23;1.70;;;1.60;;
2338;SDS011;1180;51.438;6.978;2023-07-20T13:00:49;1.73;;;1.37;;
2338;SDS011;1180;51.438;6.978;2023-07-20T13:03:14;2.20;;;1.47;;
2338;SDS011;1180;51.438;6.978;2023-07-20T13:05:41;1.40;;;1.27;;
2338;SDS011;1180;51.438;6.978;2023-07-20T13:08:07;1.80;;;1.50;;
2338;SDS011;1180;51.438;6.978;2023-07-20T13:10:32;1.83;;;1.57;;
2338;SDS011;1180;51.438;6.978;2023-07-20T13:12:59;2.10;;;1.50;;
2338;SDS011;1180;51.438;6.978;2023-07-20T13:15:29;1.70;;;1.43;;
2338;SDS011;1180;51.438;6.978;2023-07-20T13:17:57;2.00;;;1.40;;
2338;SDS011;1180;51.438;6.978;2023-07-20T13:20:24;2.83;;;1.80;;
2338;SDS011;1180;51.438;6.978;2023-07-20T13:22:50;2.43;;;1.70;;
2338;SDS011;1180;51.438;6.978;2023-07-20T13:25:17;1.97;;;1.40;;
2338;SDS011;1180;51.438;6.978;2023-07-20T13:27:43;2.00;;;1.60;;
2338;SDS011;1180;51.438;6.978;2023-07-20T13:30:11;1.50;;;1.17;;
2338;SDS011;1180;51.438;6.978;2023-07-20T13:32:42;2.47;;;1.60;;
2338;SDS011;1180;51.438;6.978;2023-07-20T13:35:10;1.90;;;1.20;;
2338;SDS011;1180;51.438;6.978;2023-07-20T13:37:38;1.83;;;1.10;;
2338;SDS011;1180;51.438;6.978;2023-07-20T13:40:04;1.37;;;1.03;;
2338;SDS011;1180;51.438;6.978;2023-07-20T13:42:32;1.20;;;0.90;;
2338;SDS011;1180;51.438;6.978;2023-07-20T13:44:59;3.43;;;1.07;;
2338;SDS011;1180;51.438;6.978;2023-07-20T13:47:26;2.43;;;1.20;;
2338;SDS011;1180;51.438;6.978;2023-07-20T13:49:52;2.30;;;1.30;;
2338;SDS011;1180;51.438;6.978;2023-07-20T13:52:18;1.73;;;1.23;;
2338;SDS011;1180;51.438;6.978;2023-07-20T13:54:44;2.43;;;1.20;;
2338;SDS011;1180;51.438;6.978;2023-07-20T13:57:10;2.10;;;1.30;;
2338;SDS011;1180;51.438;6.978;2023-07-20T13:59:36;1.30;;;1.03;;
2338;SDS011;1180;51.438;6.978;2023-07-20T14:02:02;1.53;;;0.90;;
2338;SDS011;1180;51.438;6.978;2023-07-20T14:04:29;1.87;;;1.30;;
2338;SDS011;1180;51.438;6.978;2023-07-20T14:06:55;3.00;;;1.50;;
2338;SDS011;1180;51.438;6.978;2023-07-20T14:09:21;1.70;;;1.30;;
2338;SDS011;1180;51.438;6.978;2023-07-20T14:11:48;1.30;;;1.10;;
2338;SDS011;1180;51.438;6.978;2023-07-20T14:14:13;1.13;;;0.90;;
2338;SDS011;1180;51.438;6.978;2023-07-20T14:16:39;1.10;;;0.90;;
2338;SDS011;1180;51.438;6.978;2023-07-20T14:19:06;1.20;;;1.00;;
2338;SDS011;1180;51.438;6.978;2023-07-20T14:21:32;1.80;;;1.20;;
2338;SDS011;1180;51.438;6.978;2023-07-20T14:23:58;1.47;;;1.10;;
2338;SDS011;1180;51.438;6.978;2023-07-20T14:26:24;1.43;;;1.00;;
2338;SDS011;1180;51.438;6.978;2023-07-20T14:28:50;1.83;;;1.10;;
2338;SDS011;1180;51.438;6.978;2023-07-20T14:31:17;2.03;;;0.90;;
2338;SDS011;1180;51.438;6.978;2023-07-20T14:33:51;2.37;;;1.03;;
2338;SDS011;1180;51.438;6.978;2023-07-20T14:36:16;3.77;;;1.20;;
2338;SDS011;1180;51.438;6.978;2023-07-20T14:38:42;1.90;;;1.13;;
2338;SDS011;1180;51.438;6.978;2023-07-20T14:41:08;1.20;;;0.90;;
2338;SDS011;1180;51.438;6.978;2023-07-20T14:43:33;1.03;;;0.90;;
2338;SDS011;1180;51.438;6.978;2023-07-20T14:46:00;2.77;;;1.10;;
2338;SDS011;1180;51.438;6.978;2023-07-20T14:48:25;2.40;;;1.43;;
2338;SDS011;1180;51.438;6.978;2023-07-20T14:50:52;1.30;;;1.10;;
2338;SDS011;1180;51.438;6.978;2023-07-20T14:53:18;1.70;;;1.13;;
2338;SDS011;1180;51.438;6.978;2023-07-20T14:55:45;1.33;;;1.10;;
2338;SDS011;1180;51.438;6.978;2023-07-20T14:58:11;1.80;;;1.07;;
2338;SDS011;1180;51.438;6.978;2023-07-20T15:00:37;1.43;;;1.20;;
2338;SDS011;1180;51.438;6.978;2023-07-20T15:03:03;1.73;;;1.20;;
2338;SDS011;1180;51.438;6.978;2023-07-20T15:05:31;4.70;;;1.20;;
2338;SDS011;1180;51.438;6.978;2023-07-20T15:07:58;1.30;;;1.20;;
2338;SDS011;1180;51.438;6.978;2023-07-20T15:10:24;1.30;;;1.20;;
2338;SDS011;1180;51.438;6.978;2023-07-20T15:12:49;1.83;;;1.37;;
2338;SDS011;1180;51.438;6.978;2023-07-20T15:15:16;1.63;;;1.10;;
2338;SDS011;1180;51.438;6.978;2023-07-20T15:17:43;1.33;;;0.90;;
2338;SDS011;1180;51.438;6.978;2023-07-20T15:20:10;2.03;;;1.17;;
2338;SDS011;1180;51.438;6.978;2023-07-20T15:22:37;1.47;;;1.20;;
2338;SDS011;1180;51.438;6.978;2023-07-20T15:25:07;1.53;;;1.03;;
2338;SDS011;1180;51.438;6.978;2023-07-20T15:27:33;1.60;;;1.20;;